East Peoria, IL (61611)

4:04 PM CST on February 07, 2016 (GMT -0600)
Fondulac Heights | | Change Station
CLOSE
Current Station
Personal Weather Station
Location: East Peoria, IL
Elevation: 692 ft
Nearby Weather Stations

Elev 692 ft 40.69 °N, 89.53 °W | Updated 18 seconds ago

Partly Cloudy
Partly Cloudy
46.8 °F
Feels Like 46 °F
N
3.2
Wind Variable Wind from SW
Gusts 9.9 mph

Today
High -- | Low -- °F
--% Chance of Precip.
Yesterday
High -- | Low -- °F
Precip. -- in
Pressure 29.84 in
Visibility 10.0 miles
Clouds Clear
Windchill 46 °F
Dew Point 29 °F
Humidity 50%
Rainfall 0.00 in
Snow Depth Not available.
7:02 AM 5:22 PM
Waning Crescent, 1% visible
METAR KPIA 072154Z 29012G20KT 10SM CLR 08/M02 A2982 RMK AO2 SLP103 T00831022 $
Pressure 29.84 in
Visibility 10.0 miles
Clouds Clear
Windchill 46 °F
Dew Point 29 °F
Humidity 50%
Rainfall 0.00 in
Snow Depth Not available.
7:02 AM 5:22 PM
Waning Crescent, 1% visible
METAR KPIA 072154Z 29012G20KT 10SM CLR 08/M02 A2982 RMK AO2 SLP103 T00831022 $

10-Day Weather Forecast

Almanac

Astronomy

Feb. 07, 2016 Rise Set
Actual Time
Civil Twilight
Nautical Twilight
Astronomical Twilight
Moon
Length of Visible Light
Length of Day
Tomorrow will be .
, % of the Moon is Illuminated

Today's Extremes

State Highs State Lows

Community

WunderPhotos

Upload Photos

1,891,304 photos uploaded!

WunderBlog® & News

Nearby

Air Quality

  Air Quality AQ Index Pollutant
Not available.

Snow Depth

Station Depth Elevation

Earthquake Activity

City Distance Mag. Time & Date
Minimum magnitude displayed is 2.5.

Coastal Water Temperatures

Place Temperature

Stations

Nearby Weather Stations

Station Location Temp. Windchill Dew Point Humidity Wind Precip. Elev Updated Type
                   

Watches & Warnings

There are currently no watches in effect.